createdAt,value
2018-10-01T00:01:37.657Z,10.90
2018-10-01T00:04:05.398Z,10.90
2018-10-01T00:06:33.090Z,10.90
2018-10-01T00:09:00.828Z,10.90
2018-10-01T00:11:28.589Z,10.90
2018-10-01T00:13:56.353Z,10.80
2018-10-01T00:16:24.110Z,10.80
2018-10-01T00:18:52.800Z,10.80
2018-10-01T00:21:26.011Z,10.70
2018-10-01T00:23:53.765Z,10.80
2018-10-01T00:26:21.461Z,10.70
2018-10-01T00:28:49.163Z,10.70
2018-10-01T00:31:16.865Z,10.70
2018-10-01T00:33:44.599Z,10.70
2018-10-01T00:36:12.283Z,10.70
2018-10-01T00:38:40.025Z,10.70
2018-10-01T00:41:07.712Z,10.80
2018-10-01T00:43:35.496Z,10.70
2018-10-01T00:46:03.804Z,10.70
2018-10-01T00:48:31.501Z,10.60
2018-10-01T00:50:59.221Z,10.60
2018-10-01T00:53:26.911Z,10.50
2018-10-01T00:55:54.642Z,10.50
2018-10-01T00:58:22.333Z,10.50
2018-10-01T01:00:50.077Z,10.50
2018-10-01T01:03:17.852Z,10.60
2018-10-01T01:05:46.256Z,10.50
2018-10-01T01:08:13.920Z,10.40
2018-10-01T01:10:41.625Z,10.40
2018-10-01T01:13:09.321Z,10.30
2018-10-01T01:15:37.013Z,10.30
2018-10-01T01:18:04.711Z,10.20
2018-10-01T01:20:32.384Z,10.20
2018-10-01T01:23:00.102Z,10.10
2018-10-01T01:25:27.833Z,10.10
2018-10-01T01:27:55.557Z,10.00
2018-10-01T01:30:23.278Z,10.10
2018-10-01T01:32:51.005Z,10.10
2018-10-01T01:35:18.705Z,10.10
2018-10-01T01:37:46.433Z,10.00
2018-10-01T01:40:14.353Z,10.00
2018-10-01T01:42:42.066Z,10.10
2018-10-01T01:45:09.830Z,10.00
2018-10-01T01:47:37.581Z,10.00
2018-10-01T01:50:05.611Z,10.00
2018-10-01T01:52:33.340Z,10.00
2018-10-01T01:55:01.070Z,10.00
2018-10-01T01:57:28.765Z,9.90
2018-10-01T01:59:56.510Z,9.90
2018-10-01T02:02:24.497Z,9.90
2018-10-01T02:04:52.252Z,9.80
2018-10-01T02:07:19.950Z,9.90
2018-10-01T02:09:47.657Z,9.80
2018-10-01T02:12:15.346Z,9.80
2018-10-01T02:14:43.125Z,9.80
2018-10-01T02:17:10.807Z,9.80
2018-10-01T02:19:38.533Z,9.80
2018-10-01T02:22:06.643Z,9.70
2018-10-01T02:24:34.566Z,9.80
2018-10-01T02:27:02.250Z,9.70
2018-10-01T02:29:30.000Z,9.80
2018-10-01T02:31:57.789Z,9.80
2018-10-01T02:34:25.476Z,9.80
2018-10-01T02:36:53.167Z,9.80
2018-10-01T02:39:20.900Z,9.80
2018-10-01T02:41:48.627Z,9.80
2018-10-01T02:44:16.360Z,9.80
2018-10-01T02:46:44.150Z,9.70
2018-10-01T02:49:11.930Z,9.80
2018-10-01T02:51:45.027Z,9.70
2018-10-01T02:54:18.182Z,9.80
2018-10-01T02:56:45.876Z,9.80
2018-10-01T02:59:13.569Z,9.80
2018-10-01T03:01:41.374Z,9.90
2018-10-01T03:04:09.112Z,9.80
2018-10-01T03:06:36.826Z,9.80
2018-10-01T03:09:07.542Z,9.80
2018-10-01T03:11:35.300Z,9.80
2018-10-01T03:14:03.005Z,9.80
2018-10-01T03:16:30.752Z,9.80
2018-10-01T03:18:58.426Z,9.80
2018-10-01T03:21:26.178Z,9.80
2018-10-01T03:23:53.856Z,9.90
2018-10-01T03:26:21.559Z,9.90
2018-10-01T03:28:49.269Z,9.80
2018-10-01T03:31:16.966Z,9.90
2018-10-01T03:33:44.649Z,9.90
2018-10-01T03:36:12.442Z,9.90
2018-10-01T03:38:40.136Z,9.90
2018-10-01T03:41:07.821Z,9.90
2018-10-01T03:43:35.519Z,9.90
2018-10-01T03:46:03.237Z,9.90
2018-10-01T03:48:30.925Z,9.90
2018-10-01T03:50:58.631Z,9.80
2018-10-01T03:53:28.373Z,9.80
2018-10-01T03:55:56.164Z,9.70
2018-10-01T03:58:24.039Z,9.80
2018-10-01T04:00:51.817Z,9.80
2018-10-01T04:03:19.519Z,9.80
2018-10-01T04:05:47.237Z,9.80
2018-10-01T04:08:14.942Z,9.80
2018-10-01T04:10:42.649Z,9.80
2018-10-01T04:13:11.421Z,9.80
2018-10-01T04:15:39.113Z,9.80
2018-10-01T04:18:06.857Z,9.80
2018-10-01T04:20:34.601Z,9.80
2018-10-01T04:23:02.358Z,9.80
2018-10-01T04:25:30.070Z,9.80
2018-10-01T04:27:57.737Z,9.80
2018-10-01T04:30:25.449Z,9.80
2018-10-01T04:32:53.225Z,9.80
2018-10-01T04:35:20.983Z,9.80
2018-10-01T04:37:48.832Z,9.70
2018-10-01T04:40:16.517Z,9.70
2018-10-01T04:42:44.468Z,9.70
2018-10-01T04:45:12.169Z,9.60
2018-10-01T04:47:39.909Z,9.60
2018-10-01T04:50:07.764Z,9.50
2018-10-01T04:52:35.504Z,9.50
2018-10-01T04:55:03.620Z,9.60
2018-10-01T04:57:31.342Z,9.60
2018-10-01T04:59:59.040Z,9.60
2018-10-01T05:02:26.733Z,9.60
2018-10-01T05:04:54.468Z,9.60
2018-10-01T05:07:22.132Z,9.70
2018-10-01T05:09:49.952Z,9.70
2018-10-01T05:12:17.669Z,9.70
2018-10-01T05:14:46.203Z,9.70
2018-10-01T05:17:13.910Z,9.70
2018-10-01T05:19:41.608Z,9.70
2018-10-01T05:22:09.346Z,9.70
2018-10-01T05:24:37.051Z,9.60
2018-10-01T05:27:04.761Z,9.60
2018-10-01T05:29:32.536Z,9.60
2018-10-01T05:32:00.188Z,9.60
2018-10-01T05:34:27.861Z,9.60
2018-10-01T05:36:55.632Z,9.60
2018-10-01T05:39:23.309Z,9.60
2018-10-01T05:41:50.997Z,9.60
2018-10-01T05:44:23.097Z,9.60
2018-10-01T05:46:50.832Z,9.60
2018-10-01T05:49:20.606Z,9.60
2018-10-01T05:51:48.332Z,9.50
2018-10-01T05:54:16.010Z,9.40
2018-10-01T05:56:43.725Z,9.40
2018-10-01T05:59:14.383Z,9.40
2018-10-01T06:01:42.161Z,9.40
2018-10-01T06:04:09.850Z,9.30
2018-10-01T06:06:37.510Z,9.30
2018-10-01T06:09:07.054Z,9.40
2018-10-01T06:11:34.760Z,9.30
2018-10-01T06:14:02.496Z,9.40
2018-10-01T06:16:30.178Z,9.40
2018-10-01T06:18:58.157Z,9.40
2018-10-01T06:21:25.836Z,9.40
2018-10-01T06:23:53.638Z,9.50
2018-10-01T06:26:21.381Z,9.50
2018-10-01T06:28:49.095Z,9.60
2018-10-01T06:31:17.036Z,9.60
2018-10-01T06:33:44.779Z,9.70
2018-10-01T06:36:12.563Z,9.70
2018-10-01T06:38:40.238Z,9.70
2018-10-01T06:41:08.032Z,9.70
2018-10-01T06:43:35.743Z,9.70
2018-10-01T06:46:03.542Z,9.90
2018-10-01T06:48:31.269Z,9.90
2018-10-01T06:50:59.029Z,9.80
2018-10-01T06:53:27.518Z,9.80
2018-10-01T06:55:55.305Z,9.80
2018-10-01T06:58:23.010Z,9.90
2018-10-01T07:00:50.806Z,10.10
2018-10-01T07:03:18.633Z,10.20
2018-10-01T07:05:46.444Z,10.60
2018-10-01T07:08:14.117Z,10.70
2018-10-01T07:10:41.809Z,10.70
2018-10-01T07:13:09.577Z,10.70
2018-10-01T07:15:37.320Z,10.70
2018-10-01T07:18:05.082Z,10.50
2018-10-01T07:20:32.898Z,10.40
2018-10-01T07:23:00.712Z,10.60
2018-10-01T07:25:28.388Z,11.00
2018-10-01T07:27:56.073Z,11.30
2018-10-01T07:30:23.756Z,11.50
2018-10-01T07:32:51.459Z,11.70
2018-10-01T07:35:19.141Z,11.60
2018-10-01T07:37:46.823Z,11.50
2018-10-01T07:40:14.615Z,11.40
2018-10-01T07:42:42.347Z,11.40
2018-10-01T07:45:10.334Z,11.30
2018-10-01T07:47:38.595Z,11.30
2018-10-01T07:50:06.423Z,11.20
2018-10-01T07:52:34.141Z,10.90
2018-10-01T07:55:01.834Z,11.10
2018-10-01T07:57:35.948Z,11.60
2018-10-01T08:00:03.860Z,12.20
2018-10-01T08:02:31.519Z,12.60
2018-10-01T08:04:59.205Z,12.60
2018-10-01T08:07:26.914Z,12.70
2018-10-01T08:09:54.662Z,12.90
2018-10-01T08:12:22.368Z,13.20
2018-10-01T08:14:50.075Z,13.00
2018-10-01T08:17:17.904Z,12.70
2018-10-01T08:19:45.748Z,12.50
2018-10-01T08:22:13.433Z,12.40
2018-10-01T08:24:41.724Z,12.30
2018-10-01T08:27:09.441Z,12.60
2018-10-01T08:29:37.347Z,13.20
2018-10-01T08:32:05.100Z,13.30
2018-10-01T08:34:32.783Z,13.40
2018-10-01T08:37:00.484Z,13.20
2018-10-01T08:39:28.197Z,12.90
2018-10-01T08:41:56.255Z,12.80
2018-10-01T08:44:23.986Z,12.90
2018-10-01T08:46:51.669Z,12.60
2018-10-01T08:49:29.774Z,13.20
2018-10-01T08:52:02.928Z,13.70
2018-10-01T08:54:36.177Z,13.80
2018-10-01T08:57:03.978Z,14.20
2018-10-01T08:59:32.122Z,14.90
2018-10-01T09:02:00.700Z,14.90
2018-10-01T09:04:28.377Z,13.80
2018-10-01T09:06:56.092Z,13.70
2018-10-01T09:09:23.791Z,14.00
2018-10-01T09:11:51.505Z,14.70
2018-10-01T09:14:19.229Z,14.70
2018-10-01T09:16:46.913Z,14.40
2018-10-01T09:19:14.657Z,14.20
2018-10-01T09:21:42.428Z,14.50
2018-10-01T09:24:10.225Z,14.00
2018-10-01T09:26:38.892Z,14.10
2018-10-01T09:29:06.861Z,14.00
2018-10-01T09:31:34.537Z,13.70
2018-10-01T09:34:02.258Z,14.10
2018-10-01T09:36:30.008Z,14.20
2018-10-01T09:38:57.740Z,14.20
2018-10-01T09:41:28.825Z,14.90
2018-10-01T09:43:56.511Z,14.80
2018-10-01T09:46:24.232Z,14.20
2018-10-01T09:48:51.928Z,14.10
2018-10-01T09:51:19.645Z,13.40
2018-10-01T09:53:47.404Z,13.40
2018-10-01T09:56:15.231Z,13.50
2018-10-01T09:58:42.982Z,14.00
2018-10-01T10:01:11.892Z,14.10
2018-10-01T10:03:40.044Z,14.00
2018-10-01T10:06:08.122Z,13.60
2018-10-01T10:08:35.944Z,14.00
2018-10-01T10:11:03.596Z,14.20
2018-10-01T10:13:31.396Z,14.00
2018-10-01T10:15:59.222Z,13.10
2018-10-01T10:18:26.905Z,13.30
2018-10-01T10:20:54.676Z,13.80
2018-10-01T10:23:22.456Z,14.00
2018-10-01T10:25:50.193Z,14.60
2018-10-01T10:28:17.948Z,14.50
2018-10-01T10:30:45.687Z,14.10
2018-10-01T10:33:13.861Z,14.40
2018-10-01T10:35:41.662Z,15.50
2018-10-01T10:38:09.388Z,15.70
2018-10-01T10:40:37.033Z,15.30
2018-10-01T10:43:04.816Z,14.30
2018-10-01T10:45:32.487Z,13.80
2018-10-01T10:48:00.340Z,13.40
2018-10-01T10:50:28.126Z,13.30
2018-10-01T10:52:55.803Z,13.10
2018-10-01T10:55:23.538Z,13.20
2018-10-01T10:57:51.574Z,13.30
2018-10-01T11:00:19.329Z,13.20
2018-10-01T11:02:47.049Z,12.90
2018-10-01T11:05:20.802Z,12.80
2018-10-01T11:07:48.652Z,12.70
2018-10-01T11:10:16.387Z,13.20
2018-10-01T11:12:44.157Z,14.00
2018-10-01T11:15:12.170Z,14.60
2018-10-01T11:17:39.647Z,15.60
2018-10-01T11:20:07.434Z,16.20
2018-10-01T11:22:35.087Z,16.70
2018-10-01T11:25:02.790Z,16.40
2018-10-01T11:27:30.579Z,14.80
2018-10-01T11:29:58.382Z,13.40
2018-10-01T11:32:26.042Z,12.50
2018-10-01T11:34:53.964Z,11.70
2018-10-01T11:37:21.628Z,11.00
2018-10-01T11:39:49.536Z,10.60
2018-10-01T11:42:17.096Z,10.20
2018-10-01T11:44:44.806Z,10.30
2018-10-01T11:47:12.525Z,10.30
2018-10-01T11:49:40.268Z,10.40
2018-10-01T11:52:08.059Z,10.70
2018-10-01T11:54:36.004Z,11.40
2018-10-01T11:57:03.853Z,12.00
2018-10-01T11:59:31.452Z,11.90
2018-10-01T12:01:59.593Z,12.10
2018-10-01T12:04:27.299Z,12.10
2018-10-01T12:06:55.194Z,12.30
2018-10-01T12:09:22.998Z,12.70
2018-10-01T12:11:50.669Z,13.20
2018-10-01T12:14:18.367Z,13.20
2018-10-01T12:16:46.114Z,13.20
2018-10-01T12:19:13.803Z,13.40
2018-10-01T12:21:42.405Z,13.30
2018-10-01T12:24:10.056Z,12.90
2018-10-01T12:26:37.756Z,12.60
2018-10-01T12:29:05.635Z,12.60
2018-10-01T12:31:33.256Z,12.60
2018-10-01T12:34:01.243Z,12.60
2018-10-01T12:36:28.893Z,12.50
2018-10-01T12:38:56.720Z,12.40
2018-10-01T12:41:24.448Z,12.60
2018-10-01T12:43:52.153Z,12.80
2018-10-01T12:46:19.885Z,13.40
2018-10-01T12:48:47.581Z,14.80
2018-10-01T12:51:15.606Z,15.60
2018-10-01T12:53:43.185Z,15.30
2018-10-01T12:56:10.895Z,15.20
2018-10-01T12:58:38.616Z,14.50
2018-10-01T13:01:06.308Z,13.90
2018-10-01T13:03:34.006Z,13.50
2018-10-01T13:06:01.908Z,13.30
2018-10-01T13:08:29.637Z,13.30
2018-10-01T13:10:57.356Z,12.90
2018-10-01T13:13:25.065Z,12.20
2018-10-01T13:15:52.773Z,12.40
2018-10-01T13:18:20.693Z,12.70
2018-10-01T13:20:48.313Z,13.10
2018-10-01T13:23:15.999Z,13.40
2018-10-01T13:25:43.689Z,13.10
2018-10-01T13:28:11.371Z,13.20
2018-10-01T13:30:39.130Z,14.00
2018-10-01T13:33:06.816Z,15.20
2018-10-01T13:35:34.529Z,15.90
2018-10-01T13:38:02.220Z,15.50
2018-10-01T13:40:29.960Z,14.50
2018-10-01T13:42:57.689Z,14.10
2018-10-01T13:45:25.381Z,13.70
2018-10-01T13:47:54.055Z,13.60
2018-10-01T13:50:21.774Z,13.20
2018-10-01T13:52:49.493Z,14.00
2018-10-01T13:55:17.190Z,14.60
2018-10-01T13:57:44.899Z,14.30
2018-10-01T14:00:12.608Z,14.40
2018-10-01T14:02:40.335Z,13.70
2018-10-01T14:05:07.652Z,13.90
2018-10-01T14:07:35.428Z,13.90
2018-10-01T14:10:03.530Z,13.30
2018-10-01T14:12:31.214Z,13.10
2018-10-01T14:14:58.905Z,13.10
2018-10-01T14:17:26.982Z,13.40
2018-10-01T14:19:54.866Z,13.10
2018-10-01T14:22:22.490Z,13.50
2018-10-01T14:24:50.817Z,14.00
2018-10-01T14:27:18.522Z,13.80
2018-10-01T14:29:46.221Z,13.70
2018-10-01T14:32:14.037Z,13.20
2018-10-01T14:34:41.837Z,12.90
2018-10-01T14:37:09.517Z,13.60
2018-10-01T14:39:37.192Z,14.30
2018-10-01T14:42:05.485Z,14.60
2018-10-01T14:44:33.255Z,13.80
2018-10-01T14:47:01.004Z,13.20
2018-10-01T14:49:28.805Z,13.10
2018-10-01T14:51:56.463Z,13.10
2018-10-01T14:54:24.411Z,13.30
2018-10-01T14:56:52.116Z,13.20
2018-10-01T14:59:19.869Z,13.20
2018-10-01T15:01:47.561Z,13.20
2018-10-01T15:04:15.253Z,13.10
2018-10-01T15:06:43.031Z,13.00
2018-10-01T15:09:11.609Z,12.70
2018-10-01T15:11:39.413Z,12.80
2018-10-01T15:14:07.130Z,13.10
2018-10-01T15:16:35.482Z,12.90
2018-10-01T15:19:03.197Z,12.90
2018-10-01T15:21:31.370Z,13.10
2018-10-01T15:23:59.467Z,13.30
2018-10-01T15:26:27.131Z,13.10
2018-10-01T15:28:54.958Z,12.90
2018-10-01T15:31:22.644Z,12.70
2018-10-01T15:33:50.786Z,12.60
2018-10-01T15:36:18.524Z,12.20
2018-10-01T15:38:46.225Z,12.20
2018-10-01T15:41:13.936Z,11.40
2018-10-01T15:43:41.984Z,11.30
2018-10-01T15:46:09.737Z,11.40
2018-10-01T15:48:37.426Z,11.30
2018-10-01T15:51:05.138Z,11.30
2018-10-01T15:53:32.833Z,11.00
2018-10-01T15:56:00.520Z,10.70
2018-10-01T15:58:28.560Z,10.50
2018-10-01T16:00:56.245Z,10.40
2018-10-01T16:03:23.960Z,10.10
2018-10-01T16:05:51.630Z,10.30
2018-10-01T16:08:19.349Z,10.30
2018-10-01T16:10:47.026Z,10.40
2018-10-01T16:13:14.876Z,10.40
2018-10-01T16:15:42.604Z,10.40
2018-10-01T16:18:12.441Z,10.50
2018-10-01T16:20:40.117Z,10.50
2018-10-01T16:23:07.805Z,10.60
2018-10-01T16:25:35.511Z,10.60
2018-10-01T16:28:03.226Z,10.40
2018-10-01T16:30:30.975Z,10.30
2018-10-01T16:32:58.777Z,10.40
2018-10-01T16:35:27.562Z,10.30
2018-10-01T16:37:56.440Z,10.30
2018-10-01T16:40:24.306Z,10.30
2018-10-01T16:42:53.075Z,10.20
2018-10-01T16:45:21.232Z,10.00
2018-10-01T16:47:48.932Z,9.70
2018-10-01T16:50:17.176Z,9.60
2018-10-01T16:52:50.869Z,9.50
2018-10-01T16:55:19.586Z,9.40
2018-10-01T16:57:47.321Z,9.30
2018-10-01T17:00:15.000Z,9.30
2018-10-01T17:02:43.852Z,9.40
2018-10-01T17:05:12.082Z,9.40
2018-10-01T17:07:39.821Z,9.40
2018-10-01T17:10:07.658Z,9.40
2018-10-01T17:12:35.433Z,9.30
2018-10-01T17:15:03.189Z,9.20
2018-10-01T17:17:34.948Z,9.10
2018-10-01T17:20:02.963Z,9.00
2018-10-01T17:22:30.661Z,8.90
2018-10-01T17:24:58.525Z,9.00
2018-10-01T17:27:26.293Z,8.80
2018-10-01T17:29:54.629Z,8.80
2018-10-01T17:32:22.309Z,8.70
2018-10-01T17:34:51.520Z,8.60
2018-10-01T17:37:19.484Z,8.70
2018-10-01T17:39:47.341Z,8.60
2018-10-01T17:42:15.246Z,8.50
2018-10-01T17:44:44.053Z,8.50
2018-10-01T17:47:12.061Z,8.50
2018-10-01T17:49:39.821Z,8.40
2018-10-01T17:52:08.124Z,8.40
2018-10-01T17:54:35.884Z,8.40
2018-10-01T17:57:04.492Z,8.40
2018-10-01T17:59:32.266Z,8.30
2018-10-01T18:02:00.715Z,8.40
2018-10-01T18:04:28.464Z,8.40
2018-10-01T18:06:56.121Z,8.40
2018-10-01T18:09:23.834Z,8.50
2018-10-01T18:11:51.562Z,8.50
2018-10-01T18:14:19.229Z,8.60
2018-10-01T18:16:47.019Z,8.70
2018-10-01T18:19:16.770Z,8.80
2018-10-01T18:21:44.540Z,8.80
2018-10-01T18:24:12.674Z,8.70
2018-10-01T18:26:40.372Z,8.60
2018-10-01T18:29:08.045Z,8.40
2018-10-01T18:31:35.914Z,8.40
2018-10-01T18:34:03.682Z,8.30
2018-10-01T18:36:31.565Z,8.10
2018-10-01T18:38:59.336Z,8.10
2018-10-01T18:41:27.133Z,8.10
2018-10-01T18:43:54.864Z,8.10
2018-10-01T18:46:22.641Z,8.10
2018-10-01T18:48:50.374Z,8.00
2018-10-01T18:51:18.200Z,7.90
2018-10-01T18:53:46.056Z,7.90
2018-10-01T18:56:13.856Z,7.90
2018-10-01T18:58:42.899Z,7.90
2018-10-01T19:01:10.664Z,7.90
2018-10-01T19:03:39.105Z,8.10
2018-10-01T19:06:06.880Z,8.20
2018-10-01T19:08:34.683Z,8.30
2018-10-01T19:11:02.489Z,8.40
2018-10-01T19:13:30.300Z,8.40
2018-10-01T19:15:58.000Z,8.50
2018-10-01T19:18:25.709Z,8.50
2018-10-01T19:20:53.440Z,8.60
2018-10-01T19:23:21.197Z,8.50
2018-10-01T19:25:49.040Z,8.50
2018-10-01T19:28:16.866Z,8.50
2018-10-01T19:30:44.652Z,8.50
2018-10-01T19:33:12.469Z,8.50
2018-10-01T19:35:40.381Z,8.50
2018-10-01T19:38:08.183Z,8.50
2018-10-01T19:40:36.429Z,8.50
2018-10-01T19:43:04.218Z,8.40
2018-10-01T19:45:33.209Z,8.40
2018-10-01T19:48:00.981Z,8.30
2018-10-01T19:50:29.198Z,8.40
2018-10-01T19:52:56.894Z,8.30
2018-10-01T19:55:24.717Z,8.40
2018-10-01T19:57:52.403Z,8.40
2018-10-01T20:00:20.225Z,8.40
2018-10-01T20:02:47.855Z,8.40
2018-10-01T20:05:15.595Z,8.30
2018-10-01T20:07:43.249Z,8.20
2018-10-01T20:10:11.207Z,8.10
2018-10-01T20:12:38.864Z,8.00
2018-10-01T20:15:06.704Z,7.90
2018-10-01T20:17:34.397Z,7.80
2018-10-01T20:20:02.145Z,7.80
2018-10-01T20:22:29.869Z,7.80
2018-10-01T20:24:57.559Z,7.60
2018-10-01T20:27:25.345Z,7.60
2018-10-01T20:29:53.041Z,7.60
2018-10-01T20:32:20.774Z,7.50
2018-10-01T20:34:48.456Z,7.50
2018-10-01T20:37:16.115Z,7.50
2018-10-01T20:39:43.796Z,7.40
2018-10-01T20:42:11.522Z,7.50
2018-10-01T20:44:39.177Z,7.40
2018-10-01T20:47:06.909Z,7.30
2018-10-01T20:49:34.594Z,7.30
2018-10-01T20:52:02.297Z,7.30
2018-10-01T20:54:30.022Z,7.30
2018-10-01T20:56:57.734Z,7.40
2018-10-01T20:59:25.462Z,7.40
2018-10-01T21:01:53.108Z,7.40
2018-10-01T21:04:20.780Z,7.40
2018-10-01T21:06:48.527Z,7.50
2018-10-01T21:09:16.217Z,7.50
2018-10-01T21:11:43.957Z,7.60
2018-10-01T21:14:11.651Z,7.60
2018-10-01T21:16:39.340Z,7.70
2018-10-01T21:19:07.050Z,7.70
2018-10-01T21:21:34.811Z,7.70
2018-10-01T21:24:02.820Z,7.70
2018-10-01T21:26:30.509Z,7.70
2018-10-01T21:28:58.218Z,7.70
2018-10-01T21:31:25.953Z,7.70
2018-10-01T21:33:53.711Z,7.60
2018-10-01T21:36:21.440Z,7.60
2018-10-01T21:38:49.144Z,7.60
2018-10-01T21:41:16.923Z,7.50
2018-10-01T21:43:44.529Z,7.50
2018-10-01T21:46:12.241Z,7.60
2018-10-01T21:48:39.925Z,7.50
2018-10-01T21:51:07.693Z,7.50
2018-10-01T21:53:35.443Z,7.50
2018-10-01T21:56:03.161Z,7.50
2018-10-01T21:58:30.855Z,7.40
2018-10-01T22:01:03.805Z,7.50
2018-10-01T22:03:31.576Z,7.50
2018-10-01T22:05:59.269Z,7.60
2018-10-01T22:08:26.939Z,7.60
2018-10-01T22:10:54.629Z,7.60
2018-10-01T22:13:22.372Z,7.60
2018-10-01T22:15:50.097Z,7.60
2018-10-01T22:18:19.085Z,7.60
2018-10-01T22:20:46.953Z,7.60
2018-10-01T22:23:15.602Z,7.60
2018-10-01T22:25:43.512Z,7.60
2018-10-01T22:28:11.546Z,7.60
2018-10-01T22:30:39.948Z,7.60
2018-10-01T22:33:07.670Z,7.60
2018-10-01T22:35:35.382Z,7.50
2018-10-01T22:38:03.106Z,7.50
2018-10-01T22:40:31.121Z,7.50
2018-10-01T22:42:58.829Z,7.50
2018-10-01T22:45:26.538Z,7.50
2018-10-01T22:47:54.241Z,7.50
2018-10-01T22:50:21.971Z,7.60
2018-10-01T22:52:49.702Z,7.50
2018-10-01T22:55:17.405Z,7.50
2018-10-01T22:57:45.097Z,7.40
2018-10-01T23:00:12.855Z,7.30
2018-10-01T23:02:42.085Z,7.30
2018-10-01T23:05:09.972Z,7.20
2018-10-01T23:07:37.688Z,7.20
2018-10-01T23:10:05.484Z,7.20
2018-10-01T23:12:33.234Z,7.20
2018-10-01T23:15:00.906Z,7.20
2018-10-01T23:17:28.608Z,7.20
2018-10-01T23:19:56.276Z,7.20
2018-10-01T23:22:23.982Z,7.20
2018-10-01T23:24:51.693Z,7.20
2018-10-01T23:27:20.065Z,7.10
2018-10-01T23:29:48.820Z,7.10
2018-10-01T23:32:16.560Z,7.10
2018-10-01T23:34:44.258Z,7.20
2018-10-01T23:37:11.934Z,7.20
2018-10-01T23:39:39.645Z,7.20
2018-10-01T23:42:07.357Z,7.30
2018-10-01T23:44:35.113Z,7.30
2018-10-01T23:47:02.784Z,7.30
2018-10-01T23:49:30.438Z,7.30
2018-10-01T23:51:58.112Z,7.40
2018-10-01T23:54:25.823Z,7.40
2018-10-01T23:56:53.552Z,7.40
2018-10-01T23:59:21.273Z,7.40
